Time;durP1;ratioP1;P1;durP2;ratioP2;P2;SDS_P1;SDS_P2;PMS_P1;PMS_P2;Temp;Humidity;BMP_temperature;BMP_pressure;BME280_temperature;BME280_humidity;BME280_pressure;Samples;Min_cycle;Max_cycle;Signal;HPM_P1;HPM_P2
2022/08/13 03:01:26;;;;;;;0.70;0.60;;;20.00;61.00;;;;;;5702775;22;20516;-76
2022/08/13 03:03:53;;;;;;;0.70;0.57;;;20.00;61.00;;;;;;5037169;28;20447;-74
2022/08/13 03:06:19;;;;;;;0.70;0.50;;;20.00;61.00;;;;;;5037477;28;20450;-74
2022/08/13 03:08:51;;;;;;;0.70;0.60;;;20.00;60.90;;;;;;5037279;28;20455;-74
2022/08/13 03:11:19;;;;;;;0.77;0.60;;;19.90;61.20;;;;;;5037385;28;20821;-75
2022/08/13 03:16:15;;;;;;;0.70;0.50;;;19.90;61.50;;;;;;5051427;22;20483;-72
2022/08/13 03:18:43;;;;;;;0.70;0.50;;;19.80;61.60;;;;;;5035622;28;20263;-73
2022/08/13 03:21:09;;;;;;;0.70;0.60;;;19.80;61.60;;;;;;5035402;28;20444;-74
2022/08/13 03:23:36;;;;;;;0.70;0.50;;;19.80;61.70;;;;;;5035400;28;20509;-74
2022/08/13 03:26:03;;;;;;;0.70;0.50;;;19.80;61.80;;;;;;5035096;28;20514;-74
2022/08/13 03:28:30;;;;;;;0.70;0.53;;;19.80;62.10;;;;;;5035481;28;20439;-73
2022/08/13 03:30:56;;;;;;;2.60;0.60;;;19.80;62.10;;;;;;5035470;28;20439;-74
2022/08/13 03:33:23;;;;;;;0.90;0.60;;;19.80;62.10;;;;;;5035183;28;20547;-74
2022/08/13 03:35:51;;;;;;;0.70;0.60;;;19.80;62.20;;;;;;5035223;28;20483;-74
2022/08/13 03:38:18;;;;;;;0.70;0.60;;;19.70;62.50;;;;;;5034067;28;20459;-73
2022/08/13 03:41:08;;;;;;;0.70;0.60;;;19.70;62.50;;;;;;5035191;28;20447;-74
2022/08/13 03:43:35;;;;;;;0.70;0.57;;;19.70;62.50;;;;;;5035129;28;20801;-73
2022/08/13 03:46:02;;;;;;;0.70;0.60;;;19.70;62.60;;;;;;5035369;28;20463;-73
2022/08/13 03:48:28;;;;;;;0.70;0.60;;;19.70;62.70;;;;;;5035105;28;20566;-73
2022/08/13 03:50:59;;;;;;;0.70;0.60;;;19.60;62.80;;;;;;5034923;28;20451;-73
2022/08/13 03:53:27;;;;;;;0.87;0.87;;;19.60;62.90;;;;;;5035029;28;20432;-74
2022/08/13 03:55:55;;;;;;;0.70;0.53;;;19.60;63.10;;;;;;5034736;28;20483;-73
2022/08/13 03:58:23;;;;;;;0.70;0.50;;;19.50;63.10;;;;;;5034811;28;20451;-73
2022/08/13 04:00:50;;;;;;;0.73;0.53;;;19.50;63.30;;;;;;5034833;28;20444;-73
2022/08/13 04:03:20;;;;;;;0.70;0.60;;;19.50;63.50;;;;;;5034493;28;20981;-73
2022/08/13 04:05:47;;;;;;;0.70;0.60;;;19.50;63.40;;;;;;5034677;28;20507;-73
2022/08/13 04:08:15;;;;;;;0.70;0.60;;;19.50;63.40;;;;;;5034870;28;20642;-73
2022/08/13 04:10:42;;;;;;;0.80;0.60;;;19.50;63.40;;;;;;5034461;28;20953;-73
2022/08/13 04:13:14;;;;;;;0.70;0.53;;;19.50;63.40;;;;;;5034528;28;20444;-74
2022/08/13 04:15:42;;;;;;;0.80;0.60;;;19.50;63.30;;;;;;5034041;28;20484;-74
2022/08/13 04:18:11;;;;;;;0.90;0.50;;;19.50;63.30;;;;;;5034571;28;20443;-74
2022/08/13 04:20:39;;;;;;;0.70;0.60;;;19.50;63.40;;;;;;5035042;28;20539;-74
2022/08/13 04:23:08;;;;;;;0.70;0.50;;;19.50;63.50;;;;;;5034536;28;20471;-74
2022/08/13 04:25:36;;;;;;;0.90;0.63;;;19.40;63.70;;;;;;5034593;28;20517;-74
2022/08/13 04:28:04;;;;;;;0.80;0.77;;;19.50;63.70;;;;;;5034314;28;20454;-73
2022/08/13 04:30:36;;;;;;;0.70;0.70;;;19.50;63.60;;;;;;5034314;28;20447;-74
2022/08/13 04:33:03;;;;;;;0.80;0.60;;;19.50;63.40;;;;;;5034064;28;20836;-74
2022/08/13 04:35:30;;;;;;;0.70;0.50;;;19.60;63.40;;;;;;5033768;28;21050;-74
2022/08/13 04:37:58;;;;;;;0.70;0.60;;;19.60;63.70;;;;;;5034472;28;20490;-73
2022/08/13 04:40:24;;;;;;;0.70;0.50;;;19.60;63.60;;;;;;5034177;28;20451;-74
2022/08/13 04:42:54;;;;;;;0.70;0.60;;;19.60;63.50;;;;;;5034047;28;20447;-74
2022/08/13 04:45:21;;;;;;;0.70;0.60;;;19.60;63.70;;;;;;5033863;28;20553;-74
2022/08/13 04:47:48;;;;;;;0.70;0.60;;;19.60;63.90;;;;;;5033984;28;20447;-73
2022/08/13 04:50:15;;;;;;;0.70;0.60;;;19.60;64.10;;;;;;5033556;28;20456;-74
2022/08/13 04:52:42;;;;;;;0.70;0.60;;;19.70;64.00;;;;;;5034177;28;20513;-73
2022/08/13 04:55:12;;;;;;;0.70;0.60;;;19.70;64.00;;;;;;5033732;28;20549;-74
2022/08/13 04:57:39;;;;;;;0.70;0.67;;;19.80;64.00;;;;;;5033854;28;20483;-73
2022/08/13 05:00:09;;;;;;;0.80;0.80;;;19.90;64.00;;;;;;5033469;28;20443;-74
2022/08/13 05:02:38;;;;;;;0.80;0.80;;;19.90;64.00;;;;;;5033862;28;20468;-74
2022/08/13 05:05:06;;;;;;;0.70;0.70;;;20.10;63.60;;;;;;5033584;28;20559;-74
2022/08/13 05:07:34;;;;;;;0.80;0.80;;;20.20;63.70;;;;;;5033315;28;20448;-73
2022/08/13 05:10:01;;;;;;;0.70;0.70;;;20.30;63.30;;;;;;5033568;28;20455;-74
2022/08/13 05:12:27;;;;;;;0.80;0.80;;;20.50;63.00;;;;;;5033530;28;20456;-73
2022/08/13 05:14:54;;;;;;;0.70;0.70;;;20.60;63.10;;;;;;5033227;28;20574;-73
2022/08/13 05:17:22;;;;;;;0.80;0.63;;;20.70;63.30;;;;;;5033287;28;20483;-73
2022/08/13 05:19:49;;;;;;;0.77;0.70;;;20.80;63.00;;;;;;5033429;28;20447;-74
2022/08/13 05:22:16;;;;;;;0.70;0.50;;;20.90;62.50;;;;;;5033334;28;20452;-74
2022/08/13 05:24:42;;;;;;;0.80;0.70;;;21.00;60.80;;;;;;5033275;28;20583;-74
2022/08/13 05:27:13;;;;;;;0.80;0.70;;;21.10;60.80;;;;;;5033297;28;20443;-72
2022/08/13 05:29:41;;;;;;;0.70;0.60;;;21.20;60.80;;;;;;5033344;28;20490;-72
2022/08/13 05:32:10;;;;;;;0.70;0.60;;;21.30;60.50;;;;;;5033106;28;20554;-74
2022/08/13 05:34:38;;;;;;;0.70;0.70;;;21.40;59.60;;;;;;5032838;28;20478;-74
2022/08/13 05:37:06;;;;;;;0.70;0.50;;;21.60;59.50;;;;;;5033099;28;20483;-74
2022/08/13 05:39:33;;;;;;;0.70;0.70;;;21.70;59.00;;;;;;5033123;28;20529;-73
2022/08/13 05:42:00;;;;;;;0.70;0.60;;;21.90;59.20;;;;;;5032509;28;20866;-74
2022/08/13 05:44:27;;;;;;;0.70;0.60;;;21.90;58.40;;;;;;5032954;28;20475;-74
2022/08/13 05:46:53;;;;;;;0.70;0.53;;;22.10;58.20;;;;;;5032805;28;20534;-74
2022/08/13 05:49:23;;;;;;;0.70;0.60;;;22.20;58.00;;;;;;5032766;28;20505;-74
2022/08/13 05:51:52;;;;;;;0.80;0.60;;;22.30;57.40;;;;;;5033093;28;20453;-73
2022/08/13 05:54:19;;;;;;;0.70;0.50;;;22.40;57.30;;;;;;5032936;28;20499;-73
2022/08/13 05:56:46;;;;;;;1.10;0.80;;;22.60;57.60;;;;;;5032736;28;20574;-72
2022/08/13 06:04:38;;;;;;;0.70;0.60;;;22.90;55.70;;;;;;5032355;28;20458;-73
2022/08/13 06:07:06;;;;;;;0.80;0.63;;;23.00;55.60;;;;;;5033318;28;20440;-72
2022/08/13 06:09:33;;;;;;;0.70;0.60;;;23.20;55.60;;;;;;5032732;28;20443;-73
2022/08/13 06:12:00;;;;;;;0.70;0.50;;;23.30;55.50;;;;;;5032614;28;20518;-73
2022/08/13 06:14:26;;;;;;;0.70;0.60;;;23.50;54.40;;;;;;5032235;28;20487;-73
2022/08/13 06:16:55;;;;;;;0.70;0.60;;;23.60;54.20;;;;;;5032481;28;20488;-73
2022/08/13 06:19:23;;;;;;;0.80;0.53;;;23.80;54.00;;;;;;5032498;28;20884;-73
2022/08/13 06:21:51;;;;;;;0.70;0.60;;;23.90;53.50;;;;;;5032371;28;20451;-73
2022/08/13 06:24:19;;;;;;;0.70;0.60;;;23.90;53.40;;;;;;5032405;28;20529;-73
2022/08/13 06:26:50;;;;;;;0.87;0.50;;;24.00;53.80;;;;;;5032486;28;20549;-73
2022/08/13 06:29:18;;;;;;;0.83;0.50;;;24.20;52.90;;;;;;5032366;28;20442;-73
2022/08/13 06:31:48;;;;;;;0.70;0.50;;;24.40;52.80;;;;;;5032394;28;20474;-72
2022/08/13 06:34:15;;;;;;;0.70;0.50;;;24.60;52.80;;;;;;5032403;28;20476;-73
2022/08/13 06:36:41;;;;;;;0.70;0.60;;;24.80;52.60;;;;;;5032126;28;20483;-71
2022/08/13 06:39:09;;;;;;;0.80;0.60;;;24.90;52.00;;;;;;5032267;28;20451;-71
2022/08/13 06:41:37;;;;;;;0.70;0.60;;;25.10;51.60;;;;;;5032353;28;20923;-72
2022/08/13 06:44:05;;;;;;;0.70;0.60;;;25.20;51.20;;;;;;5031848;28;20915;-72
2022/08/13 06:46:32;;;;;;;0.70;0.50;;;25.40;51.00;;;;;;5031980;28;20542;-72
2022/08/13 06:49:00;;;;;;;0.70;0.57;;;25.30;51.20;;;;;;5032307;28;20447;-72
2022/08/13 06:51:27;;;;;;;0.70;0.50;;;25.30;51.50;;;;;;5031916;28;20443;-72
2022/08/13 06:53:55;;;;;;;0.70;0.60;;;25.40;51.40;;;;;;5032115;28;20475;-71
2022/08/13 06:56:26;;;;;;;0.70;0.60;;;25.60;50.30;;;;;;5032725;28;20483;-71
2022/08/13 06:58:58;;;;;;;0.90;0.70;;;25.80;50.70;;;;;;5031961;28;20456;-72
2022/08/13 07:01:26;;;;;;;0.70;0.60;;;25.90;50.30;;;;;;5032177;28;20471;-72
2022/08/13 07:03:53;;;;;;;0.70;0.60;;;25.90;49.90;;;;;;5031996;28;20451;-72
2022/08/13 07:06:24;;;;;;;0.70;0.60;;;26.00;49.60;;;;;;5031911;28;20452;-72
2022/08/13 07:08:54;;;;;;;0.70;0.60;;;26.10;50.00;;;;;;5032059;28;20436;-72
2022/08/13 07:11:26;;;;;;;0.80;0.60;;;26.20;50.20;;;;;;5032061;28;20898;-72
2022/08/13 07:13:57;;;;;;;0.67;0.50;;;26.20;49.60;;;;;;5034465;28;20432;-73
2022/08/13 07:16:25;;;;;;;0.83;0.50;;;26.20;49.90;;;;;;5035789;28;20542;-73
2022/08/13 07:18:53;;;;;;;0.80;0.60;;;26.40;49.80;;;;;;5035573;28;20522;-72
2022/08/13 07:21:21;;;;;;;0.80;0.60;;;26.40;49.40;;;;;;5035718;28;20447;-72
2022/08/13 07:23:49;;;;;;;0.70;0.60;;;26.40;48.90;;;;;;5035570;28;20542;-72
2022/08/13 07:26:18;;;;;;;0.73;0.70;;;26.50;48.70;;;;;;5035497;28;20454;-73
2022/08/13 07:28:46;;;;;;;0.70;0.60;;;26.50;49.20;;;;;;5035564;28;20439;-72
2022/08/13 07:31:14;;;;;;;0.73;0.67;;;26.50;49.00;;;;;;5035597;28;20530;-72
2022/08/13 07:33:43;;;;;;;0.70;0.60;;;26.40;49.40;;;;;;5035013;28;20852;-73
2022/08/13 07:36:13;;;;;;;0.93;0.70;;;26.50;48.90;;;;;;5034961;28;21068;-71
2022/08/13 07:38:41;;;;;;;1.00;0.63;;;26.60;48.80;;;;;;5035320;28;20578;-70
2022/08/13 07:41:10;;;;;;;0.73;0.57;;;26.30;49.30;;;;;;5035223;28;20535;-72
2022/08/13 07:43:39;;;;;;;0.70;0.60;;;26.20;49.40;;;;;;5035974;28;20447;-72
2022/08/13 07:46:10;;;;;;;0.70;0.60;;;26.30;49.30;;;;;;5035114;28;20494;-71
2022/08/13 07:48:39;;;;;;;0.87;0.60;;;26.40;48.80;;;;;;5035162;28;20959;-71
2022/08/13 07:51:10;;;;;;;0.80;0.57;;;26.40;49.60;;;;;;5035226;28;20451;-71
2022/08/13 07:53:39;;;;;;;0.70;0.50;;;26.60;48.80;;;;;;5035294;28;20546;-71
2022/08/13 07:56:06;;;;;;;0.70;0.53;;;26.80;48.30;;;;;;5035079;28;20472;-71
2022/08/13 07:58:35;;;;;;;0.77;0.60;;;27.00;48.00;;;;;;5035028;28;20474;-70
2022/08/13 08:01:02;;;;;;;0.70;0.60;;;27.10;48.30;;;;;;5035396;28;20454;-71
2022/08/13 08:03:32;;;;;;;0.70;0.50;;;27.30;47.40;;;;;;5035230;28;20451;-71
2022/08/13 08:06:03;;;;;;;0.80;0.60;;;27.50;47.20;;;;;;5035045;28;20511;-71
2022/08/13 08:08:33;;;;;;;0.90;0.60;;;27.50;47.70;;;;;;5034992;28;20790;-71
2022/08/13 08:11:01;;;;;;;0.90;0.50;;;27.40;47.20;;;;;;5034877;28;20436;-71
2022/08/13 08:13:28;;;;;;;0.70;0.50;;;27.60;48.00;;;;;;5035064;28;20478;-71
2022/08/13 08:15:56;;;;;;;0.70;0.60;;;27.60;47.20;;;;;;5034258;28;20854;-71
2022/08/13 08:18:24;;;;;;;0.70;0.60;;;27.70;46.80;;;;;;5034331;28;20483;-71
2022/08/13 08:21:04;;;;;;;0.70;0.60;;;27.90;46.80;;;;;;5034723;28;20501;-71
2022/08/13 08:23:32;;;;;;;0.70;0.60;;;27.90;45.80;;;;;;5034372;28;20899;-70
2022/08/13 08:26:00;;;;;;;0.70;0.50;;;28.00;46.50;;;;;;5033842;28;20558;-71
2022/08/13 08:28:27;;;;;;;1.00;0.60;;;28.00;46.90;;;;;;5034493;28;20448;-71
2022/08/13 08:30:54;;;;;;;0.70;0.50;;;27.80;47.00;;;;;;5034446;28;20858;-71
2022/08/13 08:33:26;;;;;;;0.70;0.60;;;27.80;46.60;;;;;;5034440;28;20459;-71
2022/08/13 08:35:54;;;;;;;0.70;0.60;;;27.70;47.50;;;;;;5034202;28;20478;-71
2022/08/13 08:43:57;;;;;;;0.70;0.50;;;26.90;47.80;;;;;;5033935;28;20470;-72
2022/08/13 08:46:27;;;;;;;0.70;0.50;;;26.70;48.20;;;;;;5033959;28;20509;-71
2022/08/13 08:48:56;;;;;;;0.70;0.60;;;26.80;48.70;;;;;;5034109;28;20486;-69
2022/08/13 08:51:23;;;;;;;0.70;0.60;;;26.90;48.60;;;;;;5034034;28;20450;-69
2022/08/13 08:53:52;;;;;;;1.00;0.60;;;26.60;48.80;;;;;;5033863;28;20505;-70
2022/08/13 08:56:20;;;;;;;0.70;0.53;;;26.50;48.50;;;;;;5033875;28;20451;-69
2022/08/13 08:58:48;;;;;;;0.70;0.50;;;26.10;49.60;;;;;;5033827;28;20490;-70
2022/08/13 09:01:21;;;;;;;0.70;0.50;;;26.00;50.30;;;;;;5033840;28;20483;-70
2022/08/13 09:03:48;;;;;;;0.70;0.53;;;25.90;49.70;;;;;;5033851;28;20444;-69
2022/08/13 09:06:15;;;;;;;0.70;0.60;;;25.80;49.80;;;;;;5033472;28;20451;-70
2022/08/13 09:08:42;;;;;;;1.17;0.67;;;25.50;49.80;;;;;;5033385;28;20450;-70
2022/08/13 09:11:12;;;;;;;1.60;0.70;;;25.50;50.00;;;;;;5033741;28;20854;-70
2022/08/13 09:13:39;;;;;;;0.83;0.60;;;25.30;50.60;;;;;;5033656;28;20455;-69
2022/08/13 09:16:06;;;;;;;0.80;0.60;;;25.30;50.70;;;;;;5062507;22;20491;-77
2022/08/13 09:18:34;;;;;;;1.07;0.57;;;25.50;51.10;;;;;;5033783;28;20914;-76
2022/08/13 09:21:01;;;;;;;0.70;0.60;;;25.60;51.00;;;;;;5034021;28;20451;-77
2022/08/13 09:23:34;;;;;;;0.70;0.50;;;25.80;50.70;;;;;;5034159;28;20451;-76
2022/08/13 09:26:04;;;;;;;0.70;0.60;;;25.90;51.00;;;;;;5034027;28;20503;-76
2022/08/13 09:28:33;;;;;;;0.70;0.60;;;26.00;50.00;;;;;;5034050;28;20448;-77
2022/08/13 09:31:00;;;;;;;0.70;0.60;;;26.10;49.90;;;;;;5033587;28;20447;-77
2022/08/13 09:33:29;;;;;;;0.70;0.50;;;26.30;48.50;;;;;;5033912;28;20452;-77
2022/08/13 09:35:56;;;;;;;0.80;0.70;;;26.40;49.30;;;;;;5033842;28;20490;-77
2022/08/13 09:38:23;;;;;;;0.70;0.60;;;26.50;48.90;;;;;;5033808;28;20855;-77
2022/08/13 09:40:55;;;;;;;0.87;0.60;;;26.50;49.10;;;;;;5033822;28;20448;-77
2022/08/13 09:43:27;;;;;;;0.70;0.50;;;26.60;48.80;;;;;;5033942;28;20468;-77
2022/08/13 09:45:56;;;;;;;0.70;0.53;;;26.60;49.20;;;;;;5033745;28;20479;-77
2022/08/13 09:48:27;;;;;;;0.70;0.50;;;26.90;49.10;;;;;;5033727;28;20563;-77
2022/08/13 09:50:54;;;;;;;0.70;0.50;;;27.00;48.00;;;;;;5033734;28;20432;-77
2022/08/13 09:53:25;;;;;;;0.73;0.60;;;27.20;47.70;;;;;;5033634;28;20443;-77
2022/08/13 09:55:52;;;;;;;0.80;0.60;;;27.30;46.70;;;;;;5033262;28;20998;-77
2022/08/13 09:58:19;;;;;;;0.80;0.60;;;27.40;46.00;;;;;;5033553;28;20479;-77
2022/08/13 10:00:46;;;;;;;0.70;0.50;;;27.50;47.10;;;;;;5033538;28;20501;-77
2022/08/13 10:03:17;;;;;;;0.70;0.60;;;27.60;45.80;;;;;;5033578;28;20535;-77
2022/08/13 10:05:47;;;;;;;0.70;0.60;;;27.80;44.90;;;;;;5033414;28;20566;-77
2022/08/13 10:08:15;;;;;;;0.70;0.50;;;27.80;45.90;;;;;;5033471;28;20444;-77
2022/08/13 10:10:44;;;;;;;0.70;0.60;;;27.60;45.70;;;;;;5033391;28;20530;-77
2022/08/13 10:13:10;;;;;;;0.80;0.60;;;27.40;45.40;;;;;;5033425;28;20455;-77
2022/08/13 10:15:38;;;;;;;0.83;0.50;;;27.30;46.30;;;;;;5032900;28;20479;-77
2022/08/13 10:18:05;;;;;;;1.30;0.60;;;27.30;46.40;;;;;;5033242;28;20649;-77
2022/08/13 10:20:36;;;;;;;0.70;0.50;;;27.10;45.90;;;;;;5034698;28;20470;-79
2022/08/13 10:23:05;;;;;;;0.70;0.60;;;27.10;46.60;;;;;;5035622;28;20435;-80
2022/08/13 10:25:32;;;;;;;0.70;0.60;;;26.50;46.90;;;;;;5034498;28;20475;-79
2022/08/13 10:27:58;;;;;;;0.70;0.60;;;26.40;46.90;;;;;;5035375;28;20477;-80
2022/08/13 10:30:27;;;;;;;1.53;0.50;;;26.50;47.30;;;;;;5035415;28;20466;-80
2022/08/13 10:32:56;;;;;;;0.70;0.50;;;26.70;47.80;;;;;;5034938;28;20538;-79
2022/08/13 10:35:23;;;;;;;0.70;0.60;;;26.80;46.80;;;;;;5034586;28;20521;-79
2022/08/13 10:37:56;;;;;;;1.00;0.63;;;27.00;47.20;;;;;;5033727;28;20505;-77
2022/08/13 10:40:24;;;;;;;0.70;0.50;;;27.10;46.70;;;;;;5033203;28;20435;-77
2022/08/13 10:42:52;;;;;;;0.70;0.50;;;27.20;46.10;;;;;;5033173;28;20459;-77
2022/08/13 10:45:20;;;;;;;0.80;0.57;;;27.30;45.70;;;;;;5033112;28;20471;-77
2022/08/13 10:47:47;;;;;;;0.90;0.60;;;27.30;46.10;;;;;;5033872;28;20542;-77
2022/08/13 10:50:15;;;;;;;0.70;0.70;;;27.60;45.50;;;;;;5036718;28;20971;-77
2022/08/13 10:52:42;;;;;;;0.83;0.70;;;27.80;44.50;;;;;;5036679;28;20853;-77
2022/08/13 10:55:12;;;;;;;1.40;0.60;;;27.90;45.20;;;;;;5036808;28;20502;-77
2022/08/13 10:57:39;;;;;;;0.70;0.50;;;27.80;45.10;;;;;;5036833;28;20439;-77
2022/08/13 11:00:08;;;;;;;1.00;0.60;;;27.70;43.30;;;;;;5036807;28;20534;-77
2022/08/13 11:02:34;;;;;;;1.40;0.60;;;27.60;44.00;;;;;;5037404;28;20456;-74
2022/08/13 11:05:07;;;;;;;0.70;0.70;;;27.60;44.50;;;;;;5044284;28;20537;-75
2022/08/13 11:07:34;;;;;;;0.70;0.60;;;27.60;45.00;;;;;;5044868;28;20447;-75
2022/08/13 11:10:02;;;;;;;0.70;0.50;;;27.70;44.90;;;;;;5042236;28;20480;-76
2022/08/13 11:12:30;;;;;;;0.80;0.73;;;27.90;45.10;;;;;;5043704;28;20888;-72
2022/08/13 11:14:57;;;;;;;0.70;0.60;;;28.10;44.50;;;;;;5039548;28;20873;-74
2022/08/13 11:17:24;;;;;;;0.70;0.60;;;28.30;45.30;;;;;;5037901;28;20908;-74
2022/08/13 11:19:51;;;;;;;0.70;0.60;;;28.40;43.10;;;;;;5037266;28;20560;-71
2022/08/13 11:22:17;;;;;;;0.70;0.50;;;28.40;42.90;;;;;;5036562;28;20470;-69
2022/08/13 11:24:44;;;;;;;1.00;0.70;;;28.30;44.40;;;;;;5036379;28;20467;-71
2022/08/13 11:27:11;;;;;;;1.00;0.60;;;28.50;43.40;;;;;;5036291;28;20455;-71
2022/08/13 11:29:39;;;;;;;0.70;0.50;;;28.80;43.40;;;;;;5037556;28;20950;-71
2022/08/13 11:32:06;;;;;;;0.70;0.50;;;28.90;42.10;;;;;;5038496;28;20452;-71
2022/08/13 11:34:33;;;;;;;0.80;0.60;;;29.10;42.80;;;;;;5036303;28;20447;-69
2022/08/13 11:37:00;;;;;;;0.70;0.60;;;29.40;41.70;;;;;;5035896;28;20466;-68
2022/08/13 11:39:27;;;;;;;0.70;0.50;;;29.60;41.60;;;;;;5037385;28;20490;-72
2022/08/13 11:41:53;;;;;;;0.70;0.70;;;29.60;41.40;;;;;;5036410;28;20443;-73
2022/08/13 11:44:20;;;;;;;0.70;0.60;;;29.50;41.40;;;;;;5036053;28;20447;-70
2022/08/13 11:46:48;;;;;;;0.60;0.60;;;29.50;41.90;;;;;;5036001;28;20446;-72
2022/08/13 11:49:14;;;;;;;0.70;0.60;;;29.60;41.90;;;;;;5036233;28;20443;-73
2022/08/13 11:51:41;;;;;;;0.70;0.60;;;29.70;41.50;;;;;;5036535;28;20497;-74
2022/08/13 11:54:08;;;;;;;0.80;0.60;;;29.50;41.60;;;;;;5036613;28;20455;-71
2022/08/13 11:56:34;;;;;;;0.70;0.50;;;29.60;41.40;;;;;;5036302;28;20991;-73
2022/08/13 11:59:02;;;;;;;0.70;0.60;;;29.90;41.80;;;;;;5034882;28;20476;-72
2022/08/13 12:01:28;;;;;;;0.70;0.60;;;29.90;40.90;;;;;;5035341;28;20542;-71
2022/08/13 12:03:56;;;;;;;0.70;0.60;;;29.80;41.10;;;;;;5035637;28;20451;-73
2022/08/13 12:06:23;;;;;;;0.70;0.50;;;29.40;41.00;;;;;;5035206;28;20893;-72
2022/08/13 12:08:49;;;;;;;0.70;0.50;;;29.30;41.20;;;;;;5035265;28;20939;-73
2022/08/13 12:11:16;;;;;;;0.73;0.50;;;29.10;41.20;;;;;;5035525;28;20447;-74
2022/08/13 12:13:43;;;;;;;1.17;0.60;;;29.10;41.20;;;;;;5035533;28;20498;-73
2022/08/13 12:16:10;;;;;;;0.80;0.60;;;29.20;41.60;;;;;;5034976;28;20542;-73
2022/08/13 12:18:37;;;;;;;0.70;0.50;;;29.40;41.50;;;;;;5035844;28;20483;-72
2022/08/13 12:21:05;;;;;;;0.70;0.50;;;29.70;40.90;;;;;;5040693;28;20460;-73
2022/08/13 12:23:31;;;;;;;0.70;0.50;;;29.90;40.80;;;;;;5039628;28;20447;-73
2022/08/13 12:25:58;;;;;;;0.77;0.60;;;29.70;41.40;;;;;;5039259;28;20455;-73
2022/08/13 12:28:27;;;;;;;0.70;0.60;;;29.80;41.80;;;;;;5035340;28;20448;-73
2022/08/13 12:30:56;;;;;;;0.70;0.60;;;29.90;41.10;;;;;;5035842;28;20455;-72
2022/08/13 12:33:24;;;;;;;0.90;0.70;;;29.80;40.60;;;;;;5035291;28;21013;-73
2022/08/13 12:35:51;;;;;;;1.23;0.60;;;29.80;40.90;;;;;;5035373;28;20502;-72
2022/08/13 12:38:19;;;;;;;0.70;0.60;;;29.60;40.20;;;;;;5036033;28;20534;-71
2022/08/13 12:40:47;;;;;;;0.70;0.60;;;29.60;41.40;;;;;;5036347;28;20456;-72
2022/08/13 12:43:15;;;;;;;0.80;0.60;;;30.00;40.20;;;;;;5038686;28;20452;-74
2022/08/13 12:45:42;;;;;;;0.80;0.60;;;30.10;40.00;;;;;;5035333;28;20517;-70
2022/08/13 12:48:12;;;;;;;0.70;0.60;;;29.70;39.30;;;;;;5035578;28;20463;-73
2022/08/13 12:50:40;;;;;;;0.70;0.60;;;29.90;40.10;;;;;;5039173;28;20451;-71
2022/08/13 12:53:07;;;;;;;0.80;0.60;;;29.60;39.30;;;;;;5038472;28;20968;-73
2022/08/13 12:55:38;;;;;;;0.70;0.60;;;29.60;41.30;;;;;;5038758;28;20536;-73
2022/08/13 12:58:18;;;;;;;0.90;0.60;;;29.90;40.30;;;;;;5035888;28;20845;-74
2022/08/13 13:00:46;;;;;;;0.70;0.60;;;29.80;40.10;;;;;;5038224;28;20454;-73
2022/08/13 13:03:13;;;;;;;0.80;0.70;;;29.80;40.00;;;;;;5040140;28;20874;-76
2022/08/13 13:05:41;;;;;;;0.80;0.60;;;29.70;40.20;;;;;;5036855;28;20990;-74
2022/08/13 13:08:20;;;;;;;0.70;0.60;;;29.80;39.90;;;;;;5038949;28;20451;-74
2022/08/13 13:10:51;;;;;;;0.70;0.60;;;29.70;39.80;;;;;;5043377;28;20451;-76
2022/08/13 13:13:19;;;;;;;0.70;0.50;;;29.50;39.30;;;;;;5039044;28;20439;-74
2022/08/13 13:15:46;;;;;;;0.70;0.60;;;29.50;40.00;;;;;;5035719;28;20483;-76
2022/08/13 13:18:14;;;;;;;0.70;0.70;;;29.70;39.90;;;;;;5036487;28;20965;-76
2022/08/13 13:20:43;;;;;;;1.23;0.60;;;29.60;39.90;;;;;;5035943;28;20483;-76
2022/08/13 13:23:11;;;;;;;0.90;0.57;;;29.70;40.10;;;;;;5033954;28;20950;-72
2022/08/13 13:25:40;;;;;;;0.60;0.60;;;29.60;40.60;;;;;;5034027;28;20471;-73
2022/08/13 13:28:08;;;;;;;0.90;0.60;;;29.80;39.70;;;;;;5034079;28;20447;-73
2022/08/13 13:30:37;;;;;;;0.70;0.50;;;29.90;39.40;;;;;;5034002;28;20440;-76
2022/08/13 13:33:04;;;;;;;0.80;0.70;;;29.90;39.30;;;;;;5033663;28;21032;-74
2022/08/13 13:35:32;;;;;;;0.70;0.50;;;29.70;39.20;;;;;;5033935;28;20463;-72
2022/08/13 13:37:59;;;;;;;0.70;0.60;;;29.80;39.20;;;;;;5033634;28;20986;-72
2022/08/13 13:40:25;;;;;;;0.70;0.60;;;29.40;39.70;;;;;;5033913;28;20549;-72
2022/08/13 13:42:52;;;;;;;0.70;0.50;;;29.30;40.00;;;;;;5033827;28;20513;-71
2022/08/13 13:45:21;;;;;;;0.70;0.60;;;29.50;39.80;;;;;;5033411;28;20827;-73
2022/08/13 13:47:47;;;;;;;1.00;0.80;;;29.70;39.90;;;;;;5033684;28;20462;-74
2022/08/13 13:50:14;;;;;;;0.80;0.60;;;30.00;38.80;;;;;;5033717;28;20446;-74
2022/08/13 13:52:41;;;;;;;0.70;0.50;;;30.10;38.30;;;;;;5033745;28;20502;-74
2022/08/13 13:55:08;;;;;;;0.70;0.50;;;30.20;38.60;;;;;;5034279;28;20808;-72
2022/08/13 13:57:39;;;;;;;0.70;0.60;;;30.60;38.10;;;;;;5033546;28;20447;-74
2022/08/13 14:00:07;;;;;;;0.70;0.60;;;30.90;37.60;;;;;;5033475;28;20482;-75
2022/08/13 14:02:35;;;;;;;0.70;0.53;;;31.20;37.10;;;;;;5033246;28;20478;-75
2022/08/13 14:05:02;;;;;;;0.67;0.50;;;31.10;36.70;;;;;;5033631;28;20475;-72
2022/08/13 14:07:29;;;;;;;0.70;0.53;;;31.10;36.40;;;;;;5036067;28;20451;-74
2022/08/13 14:09:56;;;;;;;0.70;0.60;;;31.30;36.40;;;;;;5035164;28;20482;-73
2022/08/13 14:12:23;;;;;;;0.70;0.60;;;31.40;36.40;;;;;;5034251;28;20876;-73
2022/08/13 14:14:50;;;;;;;0.70;0.50;;;31.40;35.20;;;;;;5033231;28;20494;-73
2022/08/13 14:17:17;;;;;;;0.60;0.50;;;31.20;35.60;;;;;;5033485;28;20451;-72
2022/08/13 14:19:45;;;;;;;0.80;0.60;;;31.20;36.20;;;;;;5033234;28;20963;-72
2022/08/13 14:22:12;;;;;;;0.70;0.50;;;31.40;35.50;;;;;;5032736;28;20448;-73
2022/08/13 14:24:40;;;;;;;0.63;0.50;;;31.50;36.30;;;;;;5033316;28;20460;-73
2022/08/13 14:27:08;;;;;;;0.70;0.50;;;31.80;35.30;;;;;;5033084;28;20456;-73
2022/08/13 14:29:34;;;;;;;0.70;0.60;;;31.90;34.40;;;;;;5032995;28;20474;-73
2022/08/13 14:32:01;;;;;;;0.70;0.70;;;31.80;34.10;;;;;;5033163;28;20451;-73
2022/08/13 14:34:28;;;;;;;0.70;0.60;;;31.70;34.90;;;;;;5033129;28;20443;-73
2022/08/13 14:36:56;;;;;;;0.70;0.53;;;31.50;34.90;;;;;;5033168;28;20483;-73
2022/08/13 14:39:23;;;;;;;0.63;0.50;;;31.60;34.20;;;;;;5033024;28;20478;-73
2022/08/13 14:41:50;;;;;;;0.70;0.60;;;31.60;34.20;;;;;;5032797;28;20478;-73
2022/08/13 14:44:18;;;;;;;0.70;0.50;;;31.70;34.60;;;;;;5033120;28;20530;-73
2022/08/13 14:46:44;;;;;;;0.70;0.57;;;31.80;35.30;;;;;;5032996;28;20514;-73
2022/08/13 14:49:11;;;;;;;1.27;0.50;;;32.00;35.00;;;;;;5033068;28;20444;-73
2022/08/13 14:51:39;;;;;;;0.63;0.50;;;32.20;33.60;;;;;;5033029;28;20451;-73
2022/08/13 14:54:07;;;;;;;0.60;0.50;;;32.30;33.80;;;;;;5033048;28;20454;-73
2022/08/13 14:56:34;;;;;;;1.57;0.50;;;32.30;34.30;;;;;;5032708;28;20467;-75
2022/08/13 14:59:00;;;;;;;0.70;0.50;;;32.40;34.10;;;;;;5033012;28;20443;-76
2022/08/13 15:01:27;;;;;;;0.70;0.53;;;32.60;33.40;;;;;;5033055;28;20447;-76
2022/08/13 15:03:57;;;;;;;0.70;0.50;;;32.50;32.70;;;;;;5032691;28;20447;-75
2022/08/13 15:06:28;;;;;;;0.70;0.60;;;32.60;33.50;;;;;;5032616;28;21069;-75
2022/08/13 15:08:54;;;;;;;0.67;0.50;;;33.00;33.10;;;;;;5032918;28;20432;-73
2022/08/13 15:11:26;;;;;;;0.70;0.60;;;33.30;32.30;;;;;;5032903;28;20558;-73
2022/08/13 15:13:54;;;;;;;0.60;0.50;;;33.60;31.90;;;;;;5032898;28;20453;-73
2022/08/13 15:16:24;;;;;;;0.70;0.60;;;33.80;31.20;;;;;;5032561;28;20491;-73
2022/08/13 15:18:54;;;;;;;0.70;0.50;;;34.20;30.40;;;;;;5057438;23;20554;-72
2022/08/13 15:21:20;;;;;;;1.30;0.53;;;34.40;31.30;;;;;;5032984;28;20487;-75
2022/08/13 15:23:52;;;;;;;0.70;0.53;;;34.80;30.80;;;;;;5032903;28;20473;-75
2022/08/13 15:26:19;;;;;;;0.80;0.60;;;35.50;29.90;;;;;;5033033;28;20442;-75
2022/08/13 15:28:47;;;;;;;0.83;0.60;;;36.60;28.90;;;;;;5032816;28;20525;-76
2022/08/13 15:31:15;;;;;;;0.70;0.50;;;37.00;28.40;;;;;;5032821;28;20446;-75
2022/08/13 15:33:42;;;;;;;0.87;0.50;;;37.30;28.80;;;;;;5033163;28;20968;-75
2022/08/13 15:36:13;;;;;;;0.67;0.50;;;37.80;27.90;;;;;;5036368;28;20500;-75
2022/08/13 15:38:40;;;;;;;0.70;0.50;;;37.70;27.70;;;;;;5036193;28;20494;-75
2022/08/13 15:41:07;;;;;;;0.60;0.50;;;37.40;28.10;;;;;;5036159;28;20552;-75
2022/08/13 15:43:34;;;;;;;0.70;0.50;;;36.70;28.00;;;;;;5036155;28;20865;-74
2022/08/13 15:46:02;;;;;;;0.63;0.50;;;36.20;29.00;;;;;;5036134;28;20530;-75
2022/08/13 15:48:30;;;;;;;1.17;0.50;;;35.80;29.40;;;;;;5035879;28;20467;-74
2022/08/13 15:50:59;;;;;;;0.70;0.50;;;35.40;29.70;;;;;;5035926;28;20447;-74
2022/08/13 15:53:27;;;;;;;0.80;0.60;;;34.80;30.20;;;;;;5035979;28;20702;-74
2022/08/13 15:55:56;;;;;;;0.73;0.50;;;34.00;31.20;;;;;;5035865;28;20455;-75
2022/08/13 15:58:24;;;;;;;0.70;0.50;;;32.60;32.30;;;;;;5035868;28;20471;-75
2022/08/13 16:00:52;;;;;;;0.70;0.60;;;31.90;33.80;;;;;;5035875;28;20476;-75
2022/08/13 16:03:22;;;;;;;0.70;0.50;;;31.40;34.20;;;;;;5035959;28;20443;-74
2022/08/13 16:05:50;;;;;;;0.70;0.60;;;30.70;35.40;;;;;;5035684;28;20856;-74